Terminal Aerodrome Forecast
Issued by NWS

Home | Current Version | Previous Version | Text Only | Print | Product List | Glossary On
Versions: 1 2 3 4 5 6 7 8 9 10 11 12
000
FTUS43 KEAX 162300
TAFMKC
TAF
KMKC 162322Z 1700/1724 11004KT P6SM SCT150
     FM170500 14004KT P6SM BKN100
     FM171000 VRB03KT P6SM VCTS BKN012 OVC060CB
     FM171600 VRB05KT P6SM SCT025=

USA.gov is the U.S. government's official web portal to all federal, state and local government web resources and services.